sensor_id;sensor_type;location;lat;lon;timestamp;temperature;humidity
52889;DHT22;41413;52.770;6.892;2023-04-03T00:00:33;4.00;99.90
52889;DHT22;41413;52.770;6.892;2023-04-03T00:03:00;3.90;99.90
52889;DHT22;41413;52.770;6.892;2023-04-03T00:05:27;3.90;99.90
52889;DHT22;41413;52.770;6.892;2023-04-03T00:07:53;3.80;99.90
52889;DHT22;41413;52.770;6.892;2023-04-03T00:10:20;3.80;99.90
52889;DHT22;41413;52.770;6.892;2023-04-03T00:12:47;3.80;99.90
52889;DHT22;41413;52.770;6.892;2023-04-03T00:15:14;3.70;99.90
52889;DHT22;41413;52.770;6.892;2023-04-03T00:17:41;3.80;99.90
52889;DHT22;41413;52.770;6.892;2023-04-03T00:20:08;3.80;99.90
52889;DHT22;41413;52.770;6.892;2023-04-03T00:22:35;3.70;99.90
52889;DHT22;41413;52.770;6.892;2023-04-03T00:25:02;3.70;99.90
52889;DHT22;41413;52.770;6.892;2023-04-03T00:27:29;3.70;99.90
52889;DHT22;41413;52.770;6.892;2023-04-03T00:29:56;3.60;99.90
52889;DHT22;41413;52.770;6.892;2023-04-03T00:32:23;3.70;99.90
52889;DHT22;41413;52.770;6.892;2023-04-03T00:34:49;3.70;99.90
52889;DHT22;41413;52.770;6.892;2023-04-03T00:37:16;3.70;99.90
52889;DHT22;41413;52.770;6.892;2023-04-03T00:39:43;3.60;99.90
52889;DHT22;41413;52.770;6.892;2023-04-03T00:42:09;3.60;99.90
52889;DHT22;41413;52.770;6.892;2023-04-03T00:47:06;3.60;99.90
52889;DHT22;41413;52.770;6.892;2023-04-03T00:49:34;3.60;99.90
52889;DHT22;41413;52.770;6.892;2023-04-03T00:52:01;3.60;99.90
52889;DHT22;41413;52.770;6.892;2023-04-03T00:54:29;3.50;99.90
52889;DHT22;41413;52.770;6.892;2023-04-03T00:56:57;3.50;99.90
52889;DHT22;41413;52.770;6.892;2023-04-03T00:59:29;3.50;99.90
52889;DHT22;41413;52.770;6.892;2023-04-03T01:01:57;3.50;99.90
52889;DHT22;41413;52.770;6.892;2023-04-03T01:04:34;3.40;99.90
52889;DHT22;41413;52.770;6.892;2023-04-03T01:07:24;3.60;99.90
52889;DHT22;41413;52.770;6.892;2023-04-03T01:09:56;3.40;99.90
52889;DHT22;41413;52.770;6.892;2023-04-03T01:12:32;3.30;99.90
52889;DHT22;41413;52.770;6.892;2023-04-03T01:15:06;3.30;99.90
52889;DHT22;41413;52.770;6.892;2023-04-03T01:17:50;3.30;99.90
52889;DHT22;41413;52.770;6.892;2023-04-03T01:26:04;3.20;99.90
52889;DHT22;41413;52.770;6.892;2023-04-03T01:28:34;3.20;99.90
52889;DHT22;41413;52.770;6.892;2023-04-03T01:31:22;3.20;99.90
52889;DHT22;41413;52.770;6.892;2023-04-03T01:33:51;3.20;99.90
52889;DHT22;41413;52.770;6.892;2023-04-03T01:36:24;3.10;99.90
52889;DHT22;41413;52.770;6.892;2023-04-03T01:38:53;3.10;99.90
52889;DHT22;41413;52.770;6.892;2023-04-03T01:41:20;3.10;99.90
52889;DHT22;41413;52.770;6.892;2023-04-03T01:43:48;3.00;99.90
52889;DHT22;41413;52.770;6.892;2023-04-03T01:46:16;3.00;99.90
52889;DHT22;41413;52.770;6.892;2023-04-03T01:48:43;2.90;99.90
52889;DHT22;41413;52.770;6.892;2023-04-03T01:51:09;2.90;99.90
52889;DHT22;41413;52.770;6.892;2023-04-03T01:53:36;2.80;99.90
52889;DHT22;41413;52.770;6.892;2023-04-03T01:56:04;2.80;99.90
52889;DHT22;41413;52.770;6.892;2023-04-03T01:58:31;2.70;99.90
52889;DHT22;41413;52.770;6.892;2023-04-03T02:00:57;2.70;99.90
52889;DHT22;41413;52.770;6.892;2023-04-03T02:03:24;2.60;99.90
52889;DHT22;41413;52.770;6.892;2023-04-03T02:05:52;2.70;99.90
52889;DHT22;41413;52.770;6.892;2023-04-03T02:08:19;2.60;99.90
52889;DHT22;41413;52.770;6.892;2023-04-03T02:10:50;2.70;99.90
52889;DHT22;41413;52.770;6.892;2023-04-03T02:13:18;2.60;99.90
52889;DHT22;41413;52.770;6.892;2023-04-03T02:15:45;2.60;99.90
52889;DHT22;41413;52.770;6.892;2023-04-03T02:18:12;2.60;99.90
52889;DHT22;41413;52.770;6.892;2023-04-03T02:20:39;2.60;99.90
52889;DHT22;41413;52.770;6.892;2023-04-03T02:23:06;2.60;99.90
52889;DHT22;41413;52.770;6.892;2023-04-03T02:25:33;2.60;99.90
52889;DHT22;41413;52.770;6.892;2023-04-03T02:28:03;2.60;99.90
52889;DHT22;41413;52.770;6.892;2023-04-03T02:30:30;2.60;99.90
52889;DHT22;41413;52.770;6.892;2023-04-03T02:32:57;2.50;99.90
52889;DHT22;41413;52.770;6.892;2023-04-03T02:35:23;2.50;99.90
52889;DHT22;41413;52.770;6.892;2023-04-03T02:37:50;2.50;99.90
52889;DHT22;41413;52.770;6.892;2023-04-03T02:40:17;2.40;99.90
52889;DHT22;41413;52.770;6.892;2023-04-03T02:42:44;2.40;99.90
52889;DHT22;41413;52.770;6.892;2023-04-03T02:45:11;2.40;99.90
52889;DHT22;41413;52.770;6.892;2023-04-03T02:47:38;2.40;99.90
52889;DHT22;41413;52.770;6.892;2023-04-03T02:50:05;2.40;99.90
52889;DHT22;41413;52.770;6.892;2023-04-03T02:52:32;2.40;99.90
52889;DHT22;41413;52.770;6.892;2023-04-03T02:54:58;2.40;99.90
52889;DHT22;41413;52.770;6.892;2023-04-03T02:57:25;2.40;99.90
52889;DHT22;41413;52.770;6.892;2023-04-03T02:59:52;2.30;99.90
52889;DHT22;41413;52.770;6.892;2023-04-03T03:02:18;2.30;99.90
52889;DHT22;41413;52.770;6.892;2023-04-03T03:04:46;2.30;99.90
52889;DHT22;41413;52.770;6.892;2023-04-03T03:07:12;2.30;99.90
52889;DHT22;41413;52.770;6.892;2023-04-03T03:09:39;2.30;99.90
52889;DHT22;41413;52.770;6.892;2023-04-03T03:12:06;2.30;99.90
52889;DHT22;41413;52.770;6.892;2023-04-03T03:14:33;2.20;99.90
52889;DHT22;41413;52.770;6.892;2023-04-03T03:16:59;2.20;99.90
52889;DHT22;41413;52.770;6.892;2023-04-03T03:19:26;2.10;99.90
52889;DHT22;41413;52.770;6.892;2023-04-03T03:21:53;2.10;99.90
52889;DHT22;41413;52.770;6.892;2023-04-03T03:24:19;2.10;99.90
52889;DHT22;41413;52.770;6.892;2023-04-03T03:26:46;2.10;99.90
52889;DHT22;41413;52.770;6.892;2023-04-03T03:29:13;2.10;99.90
52889;DHT22;41413;52.770;6.892;2023-04-03T03:31:39;2.10;99.90
52889;DHT22;41413;52.770;6.892;2023-04-03T03:34:06;2.10;99.90
52889;DHT22;41413;52.770;6.892;2023-04-03T03:36:33;2.10;99.90
52889;DHT22;41413;52.770;6.892;2023-04-03T03:38:59;2.10;99.90
52889;DHT22;41413;52.770;6.892;2023-04-03T03:41:26;2.00;99.90
52889;DHT22;41413;52.770;6.892;2023-04-03T03:43:53;2.00;99.90
52889;DHT22;41413;52.770;6.892;2023-04-03T03:46:19;1.90;99.90
52889;DHT22;41413;52.770;6.892;2023-04-03T03:48:46;1.90;99.90
52889;DHT22;41413;52.770;6.892;2023-04-03T03:51:13;1.80;99.90
52889;DHT22;41413;52.770;6.892;2023-04-03T03:53:40;1.70;99.90
52889;DHT22;41413;52.770;6.892;2023-04-03T03:56:07;1.60;99.90
52889;DHT22;41413;52.770;6.892;2023-04-03T03:58:33;1.60;99.90
52889;DHT22;41413;52.770;6.892;2023-04-03T04:01:04;1.50;99.90
52889;DHT22;41413;52.770;6.892;2023-04-03T04:03:32;1.50;99.90
52889;DHT22;41413;52.770;6.892;2023-04-03T04:05:59;1.40;99.90
52889;DHT22;41413;52.770;6.892;2023-04-03T04:08:26;1.40;99.90
52889;DHT22;41413;52.770;6.892;2023-04-03T04:10:53;1.30;99.90
52889;DHT22;41413;52.770;6.892;2023-04-03T04:13:19;1.30;99.90
52889;DHT22;41413;52.770;6.892;2023-04-03T04:15:46;1.30;99.90
52889;DHT22;41413;52.770;6.892;2023-04-03T04:18:13;1.20;99.90
52889;DHT22;41413;52.770;6.892;2023-04-03T04:20:40;1.30;99.90
52889;DHT22;41413;52.770;6.892;2023-04-03T04:23:06;1.20;99.90
52889;DHT22;41413;52.770;6.892;2023-04-03T04:25:33;1.30;99.90
52889;DHT22;41413;52.770;6.892;2023-04-03T04:28:00;1.20;99.90
52889;DHT22;41413;52.770;6.892;2023-04-03T04:30:27;1.20;99.90
52889;DHT22;41413;52.770;6.892;2023-04-03T04:32:54;1.20;99.90
52889;DHT22;41413;52.770;6.892;2023-04-03T04:35:21;1.20;99.90
52889;DHT22;41413;52.770;6.892;2023-04-03T04:37:47;1.10;99.90
52889;DHT22;41413;52.770;6.892;2023-04-03T04:40:14;1.10;99.90
52889;DHT22;41413;52.770;6.892;2023-04-03T04:42:41;1.10;99.90
52889;DHT22;41413;52.770;6.892;2023-04-03T04:45:08;1.10;99.90
52889;DHT22;41413;52.770;6.892;2023-04-03T04:47:35;1.10;99.90
52889;DHT22;41413;52.770;6.892;2023-04-03T04:50:02;1.10;99.90
52889;DHT22;41413;52.770;6.892;2023-04-03T04:52:28;1.10;99.90
52889;DHT22;41413;52.770;6.892;2023-04-03T04:54:55;1.00;99.90
52889;DHT22;41413;52.770;6.892;2023-04-03T04:57:22;1.00;99.90
52889;DHT22;41413;52.770;6.892;2023-04-03T04:59:48;1.00;99.90
52889;DHT22;41413;52.770;6.892;2023-04-03T05:02:15;1.00;99.90
52889;DHT22;41413;52.770;6.892;2023-04-03T05:04:42;1.00;99.90
52889;DHT22;41413;52.770;6.892;2023-04-03T05:07:09;1.00;99.90
52889;DHT22;41413;52.770;6.892;2023-04-03T05:09:36;1.00;99.90
52889;DHT22;41413;52.770;6.892;2023-04-03T05:12:03;1.00;99.90
52889;DHT22;41413;52.770;6.892;2023-04-03T05:14:29;0.90;99.90
52889;DHT22;41413;52.770;6.892;2023-04-03T05:16:56;0.90;99.90
52889;DHT22;41413;52.770;6.892;2023-04-03T05:19:24;0.80;99.90
52889;DHT22;41413;52.770;6.892;2023-04-03T05:21:50;0.90;99.90
52889;DHT22;41413;52.770;6.892;2023-04-03T05:24:17;0.90;99.90
52889;DHT22;41413;52.770;6.892;2023-04-03T05:26:44;0.90;99.90
52889;DHT22;41413;52.770;6.892;2023-04-03T05:29:11;1.00;99.90
52889;DHT22;41413;52.770;6.892;2023-04-03T05:31:38;1.00;99.90
52889;DHT22;41413;52.770;6.892;2023-04-03T05:34:04;1.00;99.90
52889;DHT22;41413;52.770;6.892;2023-04-03T05:36:32;1.10;99.90
52889;DHT22;41413;52.770;6.892;2023-04-03T05:38:59;1.10;99.90
52889;DHT22;41413;52.770;6.892;2023-04-03T05:41:26;1.10;99.90
52889;DHT22;41413;52.770;6.892;2023-04-03T05:43:53;1.20;99.90
52889;DHT22;41413;52.770;6.892;2023-04-03T05:46:19;1.10;99.90
52889;DHT22;41413;52.770;6.892;2023-04-03T05:48:47;1.10;99.90
52889;DHT22;41413;52.770;6.892;2023-04-03T05:51:17;1.20;99.90
52889;DHT22;41413;52.770;6.892;2023-04-03T05:53:44;1.20;99.90
52889;DHT22;41413;52.770;6.892;2023-04-03T05:56:12;1.30;99.90
52889;DHT22;41413;52.770;6.892;2023-04-03T05:58:39;1.30;99.90
52889;DHT22;41413;52.770;6.892;2023-04-03T06:01:06;1.60;99.90
52889;DHT22;41413;52.770;6.892;2023-04-03T06:03:32;2.10;99.90
52889;DHT22;41413;52.770;6.892;2023-04-03T06:06:03;2.60;99.90
52889;DHT22;41413;52.770;6.892;2023-04-03T06:08:32;3.10;99.90
52889;DHT22;41413;52.770;6.892;2023-04-03T06:11:00;3.40;99.90
52889;DHT22;41413;52.770;6.892;2023-04-03T06:13:28;4.00;99.90
52889;DHT22;41413;52.770;6.892;2023-04-03T06:15:55;4.40;99.90
52889;DHT22;41413;52.770;6.892;2023-04-03T06:18:22;5.00;99.90
52889;DHT22;41413;52.770;6.892;2023-04-03T06:20:49;5.20;99.90
52889;DHT22;41413;52.770;6.892;2023-04-03T06:23:15;6.00;99.90
52889;DHT22;41413;52.770;6.892;2023-04-03T06:25:42;6.20;99.90
52889;DHT22;41413;52.770;6.892;2023-04-03T06:28:09;6.60;99.90
52889;DHT22;41413;52.770;6.892;2023-04-03T06:30:37;7.10;99.90
52889;DHT22;41413;52.770;6.892;2023-04-03T06:33:04;7.40;99.90
52889;DHT22;41413;52.770;6.892;2023-04-03T06:35:31;7.60;99.90
52889;DHT22;41413;52.770;6.892;2023-04-03T06:37:58;7.50;99.90
52889;DHT22;41413;52.770;6.892;2023-04-03T06:40:25;7.30;99.90
52889;DHT22;41413;52.770;6.892;2023-04-03T06:42:53;7.30;99.90
52889;DHT22;41413;52.770;6.892;2023-04-03T06:45:19;6.80;99.90
52889;DHT22;41413;52.770;6.892;2023-04-03T06:47:46;6.50;99.90
52889;DHT22;41413;52.770;6.892;2023-04-03T06:50:13;5.80;99.90
52889;DHT22;41413;52.770;6.892;2023-04-03T06:52:41;5.30;99.90
52889;DHT22;41413;52.770;6.892;2023-04-03T06:55:08;5.00;99.90
52889;DHT22;41413;52.770;6.892;2023-04-03T06:57:35;4.60;99.90
52889;DHT22;41413;52.770;6.892;2023-04-03T07:00:04;4.50;99.90
52889;DHT22;41413;52.770;6.892;2023-04-03T07:02:31;4.30;99.90
52889;DHT22;41413;52.770;6.892;2023-04-03T07:04:58;4.20;99.90
52889;DHT22;41413;52.770;6.892;2023-04-03T07:07:25;4.10;99.90
52889;DHT22;41413;52.770;6.892;2023-04-03T07:09:52;4.20;99.90
52889;DHT22;41413;52.770;6.892;2023-04-03T07:12:18;4.40;99.90
52889;DHT22;41413;52.770;6.892;2023-04-03T07:14:46;4.50;99.90
52889;DHT22;41413;52.770;6.892;2023-04-03T07:17:13;5.10;99.90
52889;DHT22;41413;52.770;6.892;2023-04-03T07:19:40;5.90;99.90
52889;DHT22;41413;52.770;6.892;2023-04-03T07:22:07;6.40;99.90
52889;DHT22;41413;52.770;6.892;2023-04-03T07:24:34;6.50;99.90
52889;DHT22;41413;52.770;6.892;2023-04-03T07:27:01;6.80;99.90
52889;DHT22;41413;52.770;6.892;2023-04-03T07:29:28;7.00;99.90
52889;DHT22;41413;52.770;6.892;2023-04-03T07:31:56;7.50;99.90
52889;DHT22;41413;52.770;6.892;2023-04-03T07:34:23;7.70;99.90
52889;DHT22;41413;52.770;6.892;2023-04-03T07:36:50;7.60;99.90
52889;DHT22;41413;52.770;6.892;2023-04-03T07:39:16;7.80;99.90
52889;DHT22;41413;52.770;6.892;2023-04-03T07:41:43;8.00;99.90
52889;DHT22;41413;52.770;6.892;2023-04-03T07:44:10;8.00;99.90
52889;DHT22;41413;52.770;6.892;2023-04-03T07:46:37;8.20;99.90
52889;DHT22;41413;52.770;6.892;2023-04-03T07:49:04;8.20;99.90
52889;DHT22;41413;52.770;6.892;2023-04-03T07:51:31;8.20;99.90
52889;DHT22;41413;52.770;6.892;2023-04-03T07:53:57;8.60;99.90
52889;DHT22;41413;52.770;6.892;2023-04-03T07:56:24;8.90;99.90
52889;DHT22;41413;52.770;6.892;2023-04-03T07:58:51;9.00;99.90
52889;DHT22;41413;52.770;6.892;2023-04-03T08:01:18;9.20;99.90
52889;DHT22;41413;52.770;6.892;2023-04-03T08:03:45;9.40;98.50
52889;DHT22;41413;52.770;6.892;2023-04-03T08:06:12;10.30;99.50
52889;DHT22;41413;52.770;6.892;2023-04-03T08:08:43;11.50;99.40
52889;DHT22;41413;52.770;6.892;2023-04-03T08:11:10;12.40;97.00
52889;DHT22;41413;52.770;6.892;2023-04-03T08:13:38;12.70;95.30
52889;DHT22;41413;52.770;6.892;2023-04-03T08:16:31;13.20;93.60
52889;DHT22;41413;52.770;6.892;2023-04-03T08:18:58;13.60;91.10
52889;DHT22;41413;52.770;6.892;2023-04-03T08:21:25;14.00;93.00
52889;DHT22;41413;52.770;6.892;2023-04-03T08:23:52;14.00;92.30
52889;DHT22;41413;52.770;6.892;2023-04-03T08:26:20;14.60;90.10
52889;DHT22;41413;52.770;6.892;2023-04-03T08:28:48;14.60;90.80
52889;DHT22;41413;52.770;6.892;2023-04-03T08:31:18;14.90;87.60
52889;DHT22;41413;52.770;6.892;2023-04-03T08:33:46;15.30;86.50
52889;DHT22;41413;52.770;6.892;2023-04-03T08:36:22;15.30;87.30
52889;DHT22;41413;52.770;6.892;2023-04-03T08:38:50;15.60;80.90
52889;DHT22;41413;52.770;6.892;2023-04-03T08:41:27;15.30;82.20
52889;DHT22;41413;52.770;6.892;2023-04-03T08:49:28;16.00;76.10
52889;DHT22;41413;52.770;6.892;2023-04-03T08:51:56;16.10;77.80
52889;DHT22;41413;52.770;6.892;2023-04-03T08:54:33;15.70;76.30
52889;DHT22;41413;52.770;6.892;2023-04-03T08:57:04;16.10;74.40
52889;DHT22;41413;52.770;6.892;2023-04-03T08:59:37;15.10;72.40
52889;DHT22;41413;52.770;6.892;2023-04-03T09:02:31;15.90;75.70
52889;DHT22;41413;52.770;6.892;2023-04-03T09:05:02;16.10;74.20
52889;DHT22;41413;52.770;6.892;2023-04-03T09:07:38;15.90;75.00
52889;DHT22;41413;52.770;6.892;2023-04-03T09:10:06;16.50;72.60
52889;DHT22;41413;52.770;6.892;2023-04-03T09:12:38;16.00;72.40
52889;DHT22;41413;52.770;6.892;2023-04-03T09:15:19;16.60;71.70
52889;DHT22;41413;52.770;6.892;2023-04-03T09:18:30;16.70;70.50
52889;DHT22;41413;52.770;6.892;2023-04-03T09:23:45;16.60;67.90
52889;DHT22;41413;52.770;6.892;2023-04-03T09:26:19;16.50;68.00
52889;DHT22;41413;52.770;6.892;2023-04-03T09:28:48;16.40;66.10
52889;DHT22;41413;52.770;6.892;2023-04-03T09:31:23;16.70;67.10
52889;DHT22;41413;52.770;6.892;2023-04-03T09:33:54;16.00;63.90
52889;DHT22;41413;52.770;6.892;2023-04-03T09:36:51;15.70;66.60
52889;DHT22;41413;52.770;6.892;2023-04-03T09:39:24;16.10;66.70
52889;DHT22;41413;52.770;6.892;2023-04-03T09:44:25;16.30;64.80
52889;DHT22;41413;52.770;6.892;2023-04-03T09:46:52;16.40;66.00
52889;DHT22;41413;52.770;6.892;2023-04-03T09:49:19;16.50;62.80
52889;DHT22;41413;52.770;6.892;2023-04-03T09:51:46;16.20;63.70
52889;DHT22;41413;52.770;6.892;2023-04-03T09:54:39;15.50;61.80
52889;DHT22;41413;52.770;6.892;2023-04-03T09:57:10;15.60;63.80
52889;DHT22;41413;52.770;6.892;2023-04-03T09:59:47;16.00;64.80
52889;DHT22;41413;52.770;6.892;2023-04-03T10:05:00;14.70;60.90
52889;DHT22;41413;52.770;6.892;2023-04-03T10:07:38;15.70;64.70
52889;DHT22;41413;52.770;6.892;2023-04-03T10:10:20;16.00;60.80
52889;DHT22;41413;52.770;6.892;2023-04-03T10:13:00;15.60;61.90
52889;DHT22;41413;52.770;6.892;2023-04-03T10:15:35;15.80;62.60
52889;DHT22;41413;52.770;6.892;2023-04-03T10:18:06;15.90;62.90
52889;DHT22;41413;52.770;6.892;2023-04-03T10:20:51;16.00;61.90
52889;DHT22;41413;52.770;6.892;2023-04-03T10:23:45;16.20;61.80
52889;DHT22;41413;52.770;6.892;2023-04-03T10:31:37;16.10;61.20
52889;DHT22;41413;52.770;6.892;2023-04-03T10:34:29;14.60;61.30
52889;DHT22;41413;52.770;6.892;2023-04-03T10:40:02;15.60;62.50
52889;DHT22;41413;52.770;6.892;2023-04-03T10:45:26;16.00;60.00
52889;DHT22;41413;52.770;6.892;2023-04-03T10:48:04;16.00;59.80
52889;DHT22;41413;52.770;6.892;2023-04-03T10:53:27;15.80;59.70
52889;DHT22;41413;52.770;6.892;2023-04-03T10:56:31;16.20;60.40
52889;DHT22;41413;52.770;6.892;2023-04-03T11:02:03;15.90;59.10
52889;DHT22;41413;52.770;6.892;2023-04-03T11:04:35;15.80;59.80
52889;DHT22;41413;52.770;6.892;2023-04-03T11:07:10;15.40;58.20
52889;DHT22;41413;52.770;6.892;2023-04-03T11:09:44;15.10;59.70
52889;DHT22;41413;52.770;6.892;2023-04-03T11:12:17;14.80;60.40
52889;DHT22;41413;52.770;6.892;2023-04-03T11:14:47;14.50;61.60
52889;DHT22;41413;52.770;6.892;2023-04-03T11:20:13;14.50;60.90
52889;DHT22;41413;52.770;6.892;2023-04-03T11:22:43;14.40;61.70
52889;DHT22;41413;52.770;6.892;2023-04-03T11:27:43;13.60;63.50
52889;DHT22;41413;52.770;6.892;2023-04-03T11:30:19;14.20;63.90
52889;DHT22;41413;52.770;6.892;2023-04-03T11:35:37;14.50;63.10
52889;DHT22;41413;52.770;6.892;2023-04-03T11:38:17;14.40;63.30
52889;DHT22;41413;52.770;6.892;2023-04-03T11:40:46;14.30;63.10
52889;DHT22;41413;52.770;6.892;2023-04-03T11:43:32;14.30;63.00
52889;DHT22;41413;52.770;6.892;2023-04-03T11:54:42;14.00;62.80
52889;DHT22;41413;52.770;6.892;2023-04-03T12:11:26;13.50;64.10
52889;DHT22;41413;52.770;6.892;2023-04-03T12:16:25;13.70;63.60
52889;DHT22;41413;52.770;6.892;2023-04-03T12:26:50;12.70;64.90
52889;DHT22;41413;52.770;6.892;2023-04-03T12:29:25;13.00;65.30
52889;DHT22;41413;52.770;6.892;2023-04-03T12:51:30;12.50;66.30
52889;DHT22;41413;52.770;6.892;2023-04-03T12:54:31;12.50;66.80
52889;DHT22;41413;52.770;6.892;2023-04-03T12:57:20;12.60;66.20
52889;DHT22;41413;52.770;6.892;2023-04-03T12:59:47;12.70;66.80
52889;DHT22;41413;52.770;6.892;2023-04-03T13:02:30;12.60;65.40
52889;DHT22;41413;52.770;6.892;2023-04-03T13:05:04;12.80;67.20
52889;DHT22;41413;52.770;6.892;2023-04-03T13:07:36;13.10;67.80
52889;DHT22;41413;52.770;6.892;2023-04-03T13:17:44;12.90;66.70
52889;DHT22;41413;52.770;6.892;2023-04-03T13:20:24;12.60;65.10
52889;DHT22;41413;52.770;6.892;2023-04-03T13:23:06;12.10;65.50
52889;DHT22;41413;52.770;6.892;2023-04-03T13:25:41;12.50;66.10
52889;DHT22;41413;52.770;6.892;2023-04-03T13:28:15;12.40;66.20
52889;DHT22;41413;52.770;6.892;2023-04-03T13:33:57;12.50;66.10
52889;DHT22;41413;52.770;6.892;2023-04-03T13:36:32;12.70;67.30
52889;DHT22;41413;52.770;6.892;2023-04-03T13:41:33;12.80;67.00
52889;DHT22;41413;52.770;6.892;2023-04-03T13:46:54;13.00;66.40
52889;DHT22;41413;52.770;6.892;2023-04-03T13:49:38;12.90;67.00
52889;DHT22;41413;52.770;6.892;2023-04-03T13:52:32;12.80;67.10
52889;DHT22;41413;52.770;6.892;2023-04-03T13:55:29;12.80;65.90
52889;DHT22;41413;52.770;6.892;2023-04-03T13:58:02;12.80;67.10
52889;DHT22;41413;52.770;6.892;2023-04-03T14:02:58;12.80;67.60
52889;DHT22;41413;52.770;6.892;2023-04-03T14:05:25;12.80;67.90
52889;DHT22;41413;52.770;6.892;2023-04-03T14:07:53;13.00;67.90
52889;DHT22;41413;52.770;6.892;2023-04-03T14:10:21;13.00;67.40
52889;DHT22;41413;52.770;6.892;2023-04-03T14:12:48;13.10;67.20
52889;DHT22;41413;52.770;6.892;2023-04-03T14:15:23;13.10;66.90
52889;DHT22;41413;52.770;6.892;2023-04-03T14:17:51;13.20;66.90
52889;DHT22;41413;52.770;6.892;2023-04-03T14:20:20;13.00;65.80
52889;DHT22;41413;52.770;6.892;2023-04-03T14:22:48;12.90;66.10
52889;DHT22;41413;52.770;6.892;2023-04-03T14:25:16;12.80;67.00
52889;DHT22;41413;52.770;6.892;2023-04-03T14:27:45;12.80;67.20
52889;DHT22;41413;52.770;6.892;2023-04-03T14:30:22;12.80;66.10
52889;DHT22;41413;52.770;6.892;2023-04-03T14:32:49;12.80;67.00
52889;DHT22;41413;52.770;6.892;2023-04-03T14:35:17;12.80;66.70
52889;DHT22;41413;52.770;6.892;2023-04-03T14:37:46;12.60;65.20
52889;DHT22;41413;52.770;6.892;2023-04-03T14:40:17;12.50;66.30
52889;DHT22;41413;52.770;6.892;2023-04-03T14:42:44;12.70;66.50
52889;DHT22;41413;52.770;6.892;2023-04-03T14:45:14;12.50;65.00
52889;DHT22;41413;52.770;6.892;2023-04-03T14:47:51;12.40;66.30
52889;DHT22;41413;52.770;6.892;2023-04-03T14:50:21;12.50;66.70
52889;DHT22;41413;52.770;6.892;2023-04-03T14:52:50;12.40;67.50
52889;DHT22;41413;52.770;6.892;2023-04-03T14:55:20;12.40;67.00
52889;DHT22;41413;52.770;6.892;2023-04-03T14:57:47;12.40;67.40
52889;DHT22;41413;52.770;6.892;2023-04-03T15:00:16;12.30;67.10
52889;DHT22;41413;52.770;6.892;2023-04-03T15:02:44;12.20;66.70
52889;DHT22;41413;52.770;6.892;2023-04-03T15:05:13;12.10;66.80
52889;DHT22;41413;52.770;6.892;2023-04-03T15:07:52;12.10;67.70
52889;DHT22;41413;52.770;6.892;2023-04-03T15:10:20;12.10;67.80
52889;DHT22;41413;52.770;6.892;2023-04-03T15:12:48;12.00;67.40
52889;DHT22;41413;52.770;6.892;2023-04-03T15:15:16;12.10;67.40
52889;DHT22;41413;52.770;6.892;2023-04-03T15:17:44;11.90;67.70
52889;DHT22;41413;52.770;6.892;2023-04-03T15:20:16;11.90;66.70
52889;DHT22;41413;52.770;6.892;2023-04-03T15:22:43;12.00;67.70
52889;DHT22;41413;52.770;6.892;2023-04-03T15:25:10;11.90;67.10
52889;DHT22;41413;52.770;6.892;2023-04-03T15:27:38;11.70;66.90
52889;DHT22;41413;52.770;6.892;2023-04-03T15:30:08;11.60;67.60
52889;DHT22;41413;52.770;6.892;2023-04-03T15:32:35;11.70;67.80
52889;DHT22;41413;52.770;6.892;2023-04-03T15:35:02;11.60;66.90
52889;DHT22;41413;52.770;6.892;2023-04-03T15:37:29;11.60;67.10
52889;DHT22;41413;52.770;6.892;2023-04-03T15:39:56;11.50;67.20
52889;DHT22;41413;52.770;6.892;2023-04-03T15:42:22;11.50;67.50
52889;DHT22;41413;52.770;6.892;2023-04-03T15:44:49;11.50;67.90
52889;DHT22;41413;52.770;6.892;2023-04-03T15:47:16;11.40;68.00
52889;DHT22;41413;52.770;6.892;2023-04-03T15:49:43;11.40;68.10
52889;DHT22;41413;52.770;6.892;2023-04-03T15:52:09;11.20;67.70
52889;DHT22;41413;52.770;6.892;2023-04-03T15:54:36;11.10;68.40
52889;DHT22;41413;52.770;6.892;2023-04-03T15:57:03;11.10;68.40
52889;DHT22;41413;52.770;6.892;2023-04-03T15:59:30;11.20;68.40
52889;DHT22;41413;52.770;6.892;2023-04-03T16:01:59;11.00;68.50
52889;DHT22;41413;52.770;6.892;2023-04-03T16:04:28;11.10;68.60
52889;DHT22;41413;52.770;6.892;2023-04-03T16:06:55;11.00;68.90
52889;DHT22;41413;52.770;6.892;2023-04-03T16:09:22;10.90;69.10
52889;DHT22;41413;52.770;6.892;2023-04-03T16:11:49;11.00;67.80
52889;DHT22;41413;52.770;6.892;2023-04-03T16:14:15;10.90;68.20
52889;DHT22;41413;52.770;6.892;2023-04-03T16:16:42;10.80;68.30
52889;DHT22;41413;52.770;6.892;2023-04-03T16:19:10;10.70;68.50
52889;DHT22;41413;52.770;6.892;2023-04-03T16:21:36;10.60;69.30
52889;DHT22;41413;52.770;6.892;2023-04-03T16:24:03;10.80;69.20
52889;DHT22;41413;52.770;6.892;2023-04-03T16:26:30;10.80;69.00
52889;DHT22;41413;52.770;6.892;2023-04-03T16:28:57;10.80;69.40
52889;DHT22;41413;52.770;6.892;2023-04-03T16:31:25;10.80;68.70
52889;DHT22;41413;52.770;6.892;2023-04-03T16:33:52;10.70;68.40
52889;DHT22;41413;52.770;6.892;2023-04-03T16:36:19;10.70;69.30
52889;DHT22;41413;52.770;6.892;2023-04-03T16:38:46;10.60;69.40
52889;DHT22;41413;52.770;6.892;2023-04-03T16:41:12;10.50;69.50
52889;DHT22;41413;52.770;6.892;2023-04-03T16:43:39;10.50;69.50
52889;DHT22;41413;52.770;6.892;2023-04-03T16:46:06;10.50;68.80
52889;DHT22;41413;52.770;6.892;2023-04-03T16:48:32;10.30;69.50
52889;DHT22;41413;52.770;6.892;2023-04-03T16:50:59;10.30;69.30
52889;DHT22;41413;52.770;6.892;2023-04-03T16:53:26;10.30;70.10
52889;DHT22;41413;52.770;6.892;2023-04-03T16:55:53;10.20;70.40
52889;DHT22;41413;52.770;6.892;2023-04-03T16:58:20;10.20;70.50
52889;DHT22;41413;52.770;6.892;2023-04-03T17:00:50;10.20;69.90
52889;DHT22;41413;52.770;6.892;2023-04-03T17:03:17;10.20;70.70
52889;DHT22;41413;52.770;6.892;2023-04-03T17:05:47;10.10;70.70
52889;DHT22;41413;52.770;6.892;2023-04-03T17:08:15;10.00;71.40
52889;DHT22;41413;52.770;6.892;2023-04-03T17:10:42;10.00;70.70
52889;DHT22;41413;52.770;6.892;2023-04-03T17:13:09;10.00;71.50
52889;DHT22;41413;52.770;6.892;2023-04-03T17:15:36;10.00;70.90
52889;DHT22;41413;52.770;6.892;2023-04-03T17:18:03;9.90;71.40
52889;DHT22;41413;52.770;6.892;2023-04-03T17:20:30;9.90;70.60
52889;DHT22;41413;52.770;6.892;2023-04-03T17:22:56;9.90;70.70
52889;DHT22;41413;52.770;6.892;2023-04-03T17:25:23;9.90;70.40
52889;DHT22;41413;52.770;6.892;2023-04-03T17:27:50;9.80;70.90
52889;DHT22;41413;52.770;6.892;2023-04-03T17:30:17;9.80;71.00
52889;DHT22;41413;52.770;6.892;2023-04-03T17:32:44;9.70;71.70
52889;DHT22;41413;52.770;6.892;2023-04-03T17:35:10;9.70;71.30
52889;DHT22;41413;52.770;6.892;2023-04-03T17:37:37;9.60;71.70
52889;DHT22;41413;52.770;6.892;2023-04-03T17:40:05;9.50;72.80
52889;DHT22;41413;52.770;6.892;2023-04-03T17:42:32;9.40;73.10
52889;DHT22;41413;52.770;6.892;2023-04-03T17:44:58;9.40;73.00
52889;DHT22;41413;52.770;6.892;2023-04-03T17:47:26;9.40;73.50
52889;DHT22;41413;52.770;6.892;2023-04-03T17:49:53;9.30;74.00
52889;DHT22;41413;52.770;6.892;2023-04-03T17:52:20;9.40;72.80